Wrangell Airport
PAWG : rendu visible

Aérodrome :











RETROUVEZ-NOUS SUR...

 
LOGIN :

S'inscrire | Disclaimer

   EN    FR    IT 

 









Légende :    VFR   VFR Marginal   IFR   IFR Intensif   IFR Très Intensif
Visi : 
Plafond : 
>= 8 km
>= 3000ft
5 à 8 km
1000 à 3000 ft
1500m à 5 km
500 à 1000 ft
800 à 1500m
200 à 500 ft
< 800m
< 200 ft
Symboles :   Orages  Brouillard  Fortes neiges  Fortes précipitations  Vent > 20 kt






- Altitude de l'aérodrome : 49 ft
- Code IATA : WRG


PAWG - Wrangell

DERNIER METAR :
  • 242256Z VRB03KT 10SM FEW010 BKN021 BKN065 04/01 A2943

METARs EXPIRÉS :
  • 242142Z 01006KT 10SM -RA BKN021 OVC031 03/02 A2940 RMK AO2 P0001
  • 242117Z 00000KT 10SM -RA FEW018 SCT024 OVC033 03/02 A2939 RMK AO2 P0001
  • 242056Z 00000KT 8SM -RA BKN018 OVC028 03/01 A2937 RMK AO2 SLP947 6//// T00330011 53040

TAF PAWG
Valide du 24 à 18h jusqu'au 25 à 18h UTC


241736Z 2418/2518 11020G25KT 5SM RA BR OVC035 WS020/16035KT
TEMPO 2418/2422 4SM RA OVC025
FM242200 13010KT 5SM -SHRASN OVC030
FM250500 13008KT P6SM OVC040
FM251100 13007KT 6SM -RA OVC025 AMD LTD TO CLD VIS AND WIND 2506/2515



MET'MAP, la Météo Aéronautique d'un coup d'oeil ! - Copyright ORBIFLY Décembre 2007 - Disclaimer

ORBIFLY MET'MAP TEAM :

Programmation & Développement : Alexandra Zaïnal
Sur une idée originale de : Baudouin d'Aumeries
Assistance à la programmation : Marc-Olivier Méhu
Soutien technique & logistique : Manuel Goepfert

Contact : metmap@orbifly.com




SOURCES & CREDITS :

   NOAA       Earth
Advisory